Time;durP1;ratioP1;P1;durP2;ratioP2;P2;SDS_P1;SDS_P2;PMS_P1;PMS_P2;Temp;Humidity;BMP_temperature;BMP_pressure;BME280_temperature;BME280_humidity;BME280_pressure;Samples;Min_cycle;Max_cycle;Signal;HPM_P1;HPM_P2
2023/12/18 00:04:07;;;;;;;10.23;4.70;;;;;;;;;;10473615;28;20131;-76
2023/12/18 00:09:10;;;;;;;6.80;3.42;;;;;;;;;;10473424;28;20091;-76
2023/12/18 00:14:12;;;;;;;7.35;2.67;;;;;;;;;;10472866;28;20094;-74
2023/12/18 00:19:16;;;;;;;7.90;3.90;;;;;;;;;;10477248;28;20032;-74
2023/12/18 00:24:19;;;;;;;9.60;4.40;;;;;;;;;;10467897;28;20135;-73
2023/12/18 00:29:22;;;;;;;12.53;5.30;;;;;;;;;;10474150;28;20150;-77
2023/12/18 00:34:26;;;;;;;11.13;4.77;;;;;;;;;;10467165;28;20552;-76
2023/12/18 00:39:29;;;;;;;;;;;;;;;;;;10467976;28;20450;-76
2023/12/18 00:44:31;;;;;;;12.93;4.43;;;;;;;;;;10475869;28;19927;-76
2023/12/18 00:49:35;;;;;;;12.40;4.63;;;;;;;;;;10476421;28;20083;-77
2023/12/18 00:54:38;;;;;;;1.77;1.38;;;;;;;;;;10470869;28;20401;-75
2023/12/18 00:59:41;;;;;;;8.03;3.73;;;;;;;;;;10471792;28;20068;-75
2023/12/18 01:04:45;;;;;;;4.43;2.40;;;;;;;;;;10459700;28;20064;-75
2023/12/18 01:09:47;;;;;;;;;;;;;;;;;;10469799;28;20545;-75
2023/12/18 01:14:50;;;;;;;9.30;4.17;;;;;;;;;;10470238;28;19986;-74
2023/12/18 01:19:54;;;;;;;14.83;4.53;;;;;;;;;;10474250;28;20095;-75
2023/12/18 01:24:57;;;;;;;;;;;;;;;;;;10474066;28;20036;-77
2023/12/18 01:29:59;;;;;;;3.17;1.53;;;;;;;;;;10488471;28;19921;-75
2023/12/18 01:35:04;;;;;;;4.53;2.10;;;;;;;;;;10479045;28;20037;-76
2023/12/18 01:40:06;;;;;;;;;;;;;;;;;;10466085;28;20036;-75
2023/12/18 01:45:09;;;;;;;6.80;2.60;;;;;;;;;;10472706;28;19928;-75
2023/12/18 01:50:13;;;;;;;6.67;3.10;;;;;;;;;;10471260;28;20048;-76
2023/12/18 01:55:17;;;;;;;2.75;2.13;;;;;;;;;;10476313;28;20548;-75
2023/12/18 02:00:20;;;;;;;8.57;3.27;;;;;;;;;;10478759;28;20072;-75
2023/12/18 02:05:24;;;;;;;5.63;2.47;;;;;;;;;;10471947;28;20060;-77
2023/12/18 02:10:27;;;;;;;5.47;1.85;;;;;;;;;;10463753;28;20469;-75
2023/12/18 02:15:30;;;;;;;2.00;1.23;;;;;;;;;;10471234;28;20064;-74
2023/12/18 02:20:34;;;;;;;7.43;3.23;;;;;;;;;;10482669;28;20042;-75
2023/12/18 02:25:38;;;;;;;5.13;2.58;;;;;;;;;;10464307;28;20127;-74
2023/12/18 02:30:41;;;;;;;8.63;3.40;;;;;;;;;;10476283;28;20119;-74
2023/12/18 02:35:43;;;;;;;3.67;1.57;;;;;;;;;;10475237;28;20140;-76
2023/12/18 02:40:47;;;;;;;4.40;1.90;;;;;;;;;;10475237;28;20048;-75
2023/12/18 02:45:50;;;;;;;6.40;3.08;;;;;;;;;;10464859;28;20554;-74
2023/12/18 02:50:52;;;;;;;5.43;3.07;;;;;;;;;;10479386;28;20060;-74
2023/12/18 02:55:56;;;;;;;6.03;2.70;;;;;;;;;;10483117;28;20067;-74
2023/12/18 03:00:59;;;;;;;5.68;2.97;;;;;;;;;;10476298;28;20128;-75
2023/12/18 03:06:02;;;;;;;1.87;0.90;;;;;;;;;;10482332;28;20044;-73
2023/12/18 03:11:06;;;;;;;3.87;2.47;;;;;;;;;;10472968;28;20041;-76
2023/12/18 03:16:09;;;;;;;5.13;2.77;;;;;;;;;;10476515;28;20388;-75
2023/12/18 03:21:12;;;;;;;1.93;1.07;;;;;;;;;;10468920;28;20068;-74
2023/12/18 03:26:16;;;;;;;2.50;1.40;;;;;;;;;;10477831;28;20083;-75
2023/12/18 03:31:19;;;;;;;;;;;;;;;;;;10476797;28;20048;-74
2023/12/18 03:36:21;;;;;;;3.07;1.90;;;;;;;;;;10472736;28;19924;-74
2023/12/18 03:41:25;;;;;;;6.10;2.90;;;;;;;;;;10472682;28;20127;-74
2023/12/18 03:46:28;;;;;;;5.88;2.03;;;;;;;;;;10476670;28;20071;-75
2023/12/18 03:51:32;;;;;;;2.83;1.70;;;;;;;;;;10473392;28;20401;-75
2023/12/18 03:56:36;;;;;;;3.50;1.57;;;;;;;;;;10472969;28;20040;-74
2023/12/18 04:01:39;;;;;;;3.05;1.20;;;;;;;;;;10464020;28;20063;-77
2023/12/18 04:06:42;;;;;;;7.00;2.37;;;;;;;;;;10475921;28;20048;-74
2023/12/18 04:11:46;;;;;;;1.53;0.63;;;;;;;;;;10475066;28;20036;-74
2023/12/18 04:16:49;;;;;;;1.58;1.08;;;;;;;;;;10467274;28;20064;-75
2023/12/18 04:21:52;;;;;;;0.47;0.30;;;;;;;;;;10468150;28;20075;-75
2023/12/18 04:26:56;;;;;;;3.43;1.83;;;;;;;;;;10470786;28;20044;-75
2023/12/18 04:31:59;;;;;;;1.57;0.90;;;;;;;;;;10477478;28;20065;-75
2023/12/18 04:37:02;;;;;;;1.77;1.37;;;;;;;;;;10470809;28;20051;-74
2023/12/18 04:42:08;;;;;;;2.27;1.80;;;;;;;;;;10469187;28;20055;-74
2023/12/18 04:47:11;;;;;;;3.90;1.80;;;;;;;;;;10467537;28;20044;-75
2023/12/18 04:52:14;;;;;;;3.03;1.10;;;;;;;;;;10460928;28;20110;-75
2023/12/18 04:57:18;;;;;;;1.73;1.10;;;;;;;;;;10465556;28;20054;-76
2023/12/18 05:02:20;;;;;;;1.25;0.75;;;;;;;;;;10466007;28;20041;-75
2023/12/18 05:07:23;;;;;;;2.17;0.70;;;;;;;;;;10482158;28;20041;-76
2023/12/18 05:12:27;;;;;;;3.10;1.60;;;;;;;;;;10485630;28;20512;-75
2023/12/18 05:17:29;;;;;;;2.20;1.17;;;;;;;;;;10482212;28;20044;-74
2023/12/18 05:22:33;;;;;;;3.07;1.37;;;;;;;;;;10480311;28;20029;-77
2023/12/18 05:27:38;;;;;;;3.45;1.30;;;;;;;;;;10485913;28;20122;-76
2023/12/18 05:32:40;;;;;;;0.93;0.75;;;;;;;;;;10477435;28;20386;-74
2023/12/18 05:37:43;;;;;;;2.00;1.07;;;;;;;;;;10477072;28;20487;-76
2023/12/18 05:42:47;;;;;;;2.87;0.90;;;;;;;;;;10485118;28;20045;-77
2023/12/18 05:47:50;;;;;;;1.20;0.80;;;;;;;;;;10484487;28;20474;-75
2023/12/18 05:52:53;;;;;;;1.47;0.93;;;;;;;;;;10486125;28;20086;-76
2023/12/18 05:57:57;;;;;;;4.07;1.47;;;;;;;;;;10491038;28;20130;-75
2023/12/18 06:03:00;;;;;;;0.60;0.55;;;;;;;;;;10476250;28;20075;-75
2023/12/18 06:08:02;;;;;;;3.97;1.63;;;;;;;;;;10480045;28;20107;-74
2023/12/18 06:13:06;;;;;;;3.47;1.50;;;;;;;;;;10462335;28;20041;-74
2023/12/18 06:18:09;;;;;;;2.70;1.10;;;;;;;;;;10475106;28;20115;-75
2023/12/18 06:23:12;;;;;;;0.33;0.30;;;;;;;;;;10482718;28;20131;-74
2023/12/18 06:28:16;;;;;;;2.20;0.93;;;;;;;;;;10476715;28;20070;-74
2023/12/18 06:33:18;;;;;;;2.70;1.67;;;;;;;;;;10481937;28;20064;-75
2023/12/18 06:38:21;;;;;;;3.17;1.20;;;;;;;;;;10473499;28;20060;-74
2023/12/18 06:43:25;;;;;;;1.13;0.60;;;;;;;;;;10485149;28;20043;-74
2023/12/18 06:48:28;;;;;;;0.28;0.28;;;;;;;;;;10462188;28;20504;-75
2023/12/18 06:53:31;;;;;;;1.70;0.53;;;;;;;;;;10484732;28;20052;-76
2023/12/18 06:58:35;;;;;;;2.17;1.37;;;;;;;;;;10475366;28;20072;-74
2023/12/18 07:03:37;;;;;;;2.85;0.90;;;;;;;;;;10468957;28;20119;-74
2023/12/18 07:08:40;;;;;;;0.52;0.38;;;;;;;;;;10481594;28;20410;-74
2023/12/18 07:13:44;;;;;;;0.85;0.52;;;;;;;;;;10484525;28;20176;-74
2023/12/18 07:18:47;;;;;;;2.80;1.30;;;;;;;;;;10481812;28;20371;-76
2023/12/18 07:23:50;;;;;;;5.80;1.10;;;;;;;;;;10477166;28;20040;-73
2023/12/18 07:28:54;;;;;;;3.15;1.40;;;;;;;;;;10474996;28;20114;-74
2023/12/18 07:33:57;;;;;;;;;;;;;;;;;;10451173;28;20129;-75
2023/12/18 07:38:59;;;;;;;1.27;1.20;;;;;;;;;;10471512;28;20023;-73
2023/12/18 07:44:03;;;;;;;5.32;1.77;;;;;;;;;;10474601;28;20136;-74
2023/12/18 07:49:06;;;;;;;3.00;1.40;;;;;;;;;;10470681;28;20046;-74
2023/12/18 07:54:09;;;;;;;3.90;1.70;;;;;;;;;;10466624;28;20051;-74
2023/12/18 07:59:15;;;;;;;3.35;1.70;;;;;;;;;;10474693;28;20140;-74
2023/12/18 08:04:18;;;;;;;2.70;1.45;;;;;;;;;;10468285;28;20064;-74
2023/12/18 08:09:21;;;;;;;2.40;1.58;;;;;;;;;;10477008;28;20057;-74
2023/12/18 08:14:25;;;;;;;9.30;2.08;;;;;;;;;;10455677;28;20493;-74
2023/12/18 08:19:27;;;;;;;3.13;1.33;;;;;;;;;;10486695;28;20040;-72
2023/12/18 08:24:30;;;;;;;3.47;1.60;;;;;;;;;;10491972;28;20128;-73
2023/12/18 08:29:34;;;;;;;2.60;1.48;;;;;;;;;;10473782;28;20041;-74
2023/12/18 08:34:37;;;;;;;2.55;1.45;;;;;;;;;;10471839;28;20083;-74
2023/12/18 08:39:40;;;;;;;2.53;0.88;;;;;;;;;;10472987;28;20067;-75
2023/12/18 08:44:43;;;;;;;6.72;1.90;;;;;;;;;;10479803;28;20037;-74
2023/12/18 08:49:46;;;;;;;;;;;;;;;;;;10483824;28;20036;-74
2023/12/18 08:54:49;;;;;;;4.50;2.13;;;;;;;;;;10479162;28;19939;-73
2023/12/18 08:59:54;;;;;;;5.63;2.40;;;;;;;;;;10481329;28;20410;-75
2023/12/18 09:04:56;;;;;;;3.35;2.50;;;;;;;;;;10478909;28;20482;-74
2023/12/18 09:09:59;;;;;;;5.20;2.40;;;;;;;;;;10481832;28;20118;-75
2023/12/18 09:15:03;;;;;;;4.63;2.42;;;;;;;;;;10469926;28;20044;-76
2023/12/18 09:20:07;;;;;;;5.85;3.28;;;;;;;;;;10473831;28;20458;-75
2023/12/18 09:25:09;;;;;;;6.97;2.42;;;;;;;;;;10477472;28;20132;-75
2023/12/18 09:30:14;;;;;;;4.47;2.50;;;;;;;;;;10477973;28;20032;-75
2023/12/18 09:35:17;;;;;;;4.47;2.78;;;;;;;;;;10476340;28;20507;-75
2023/12/18 09:40:20;;;;;;;7.97;2.72;;;;;;;;;;10484460;28;20033;-75
2023/12/18 09:45:23;;;;;;;;;;;;;;;;;;10481958;28;20147;-75
2023/12/18 09:50:27;;;;;;;6.25;2.80;;;;;;;;;;10473565;28;19921;-75
2023/12/18 09:55:31;;;;;;;4.15;2.78;;;;;;;;;;10478199;28;20046;-75
2023/12/18 10:00:33;;;;;;;6.80;2.75;;;;;;;;;;10472997;28;20041;-74
2023/12/18 10:05:38;;;;;;;4.97;2.97;;;;;;;;;;10473648;28;20048;-76
2023/12/18 10:10:40;;;;;;;4.47;2.45;;;;;;;;;;10473340;28;20044;-75
2023/12/18 10:15:44;;;;;;;7.15;3.00;;;;;;;;;;10477820;28;20116;-76
2023/12/18 10:20:50;;;;;;;5.30;2.90;;;;;;;;;;10474141;28;20090;-75
2023/12/18 10:25:52;;;;;;;5.10;2.90;;;;;;;;;;10468005;28;20037;-76
2023/12/18 10:30:55;;;;;;;4.90;3.25;;;;;;;;;;10478295;28;20565;-75
2023/12/18 10:36:00;;;;;;;6.32;3.10;;;;;;;;;;10479588;28;20036;-76
2023/12/18 10:41:04;;;;;;;5.88;3.30;;;;;;;;;;10479789;28;20091;-76
2023/12/18 10:46:07;;;;;;;5.55;3.33;;;;;;;;;;10483999;28;20044;-76
2023/12/18 10:51:12;;;;;;;7.35;3.13;;;;;;;;;;10484967;28;20037;-76
2023/12/18 10:56:16;;;;;;;6.40;3.08;;;;;;;;;;10480342;28;20186;-75
2023/12/18 11:01:19;;;;;;;8.00;3.20;;;;;;;;;;10467262;28;20521;-76
2023/12/18 11:06:24;;;;;;;3.63;2.97;;;;;;;;;;10482493;28;20071;-76
2023/12/18 11:11:27;;;;;;;4.25;3.15;;;;;;;;;;10474086;28;20123;-76
2023/12/18 11:16:35;;;;;;;5.60;3.40;;;;;;;;;;10475425;28;20045;-76
2023/12/18 11:21:40;;;;;;;9.23;3.70;;;;;;;;;;10457072;28;20518;-76
2023/12/18 11:26:44;;;;;;;6.57;4.00;;;;;;;;;;10473174;28;20040;-77
2023/12/18 11:31:47;;;;;;;4.55;3.08;;;;;;;;;;10482793;28;20434;-76
2023/12/18 11:36:52;;;;;;;7.55;3.45;;;;;;;;;;10477034;28;20135;-77
2023/12/18 11:41:54;;;;;;;6.43;3.42;;;;;;;;;;10478872;28;20041;-76
2023/12/18 11:46:57;;;;;;;8.90;3.60;;;;;;;;;;10482624;28;20609;-76
2023/12/18 11:52:16;;;;;;;5.57;2.80;;;;;;;;;;10476782;28;20144;-77
2023/12/18 11:57:20;;;;;;;8.32;3.50;;;;;;;;;;10480136;28;20752;-76
2023/12/18 12:02:24;;;;;;;8.18;3.00;;;;;;;;;;10479675;28;20037;-76
2023/12/18 12:07:28;;;;;;;6.97;2.53;;;;;;;;;;10467950;28;20128;-75
2023/12/18 12:12:31;;;;;;;4.57;2.70;;;;;;;;;;10474412;28;20053;-76
2023/12/18 12:17:36;;;;;;;4.63;2.70;;;;;;;;;;10477194;28;20110;-76
2023/12/18 12:22:40;;;;;;;6.97;2.47;;;;;;;;;;10474772;28;20071;-77
2023/12/18 12:27:43;;;;;;;5.68;2.60;;;;;;;;;;10484137;28;20526;-77
2023/12/18 12:32:46;;;;;;;5.57;2.53;;;;;;;;;;10469265;28;20107;-76
2023/12/18 12:37:51;;;;;;;3.88;2.35;;;;;;;;;;10481126;28;20040;-76
2023/12/18 12:42:54;;;;;;;4.68;2.20;;;;;;;;;;10475480;28;20037;-76
2023/12/18 12:47:56;;;;;;;6.50;2.47;;;;;;;;;;10492134;28;20079;-76
2023/12/18 12:53:01;;;;;;;10.68;3.20;;;;;;;;;;10475159;28;20079;-76
2023/12/18 12:58:04;;;;;;;23.40;4.28;;;;;;;;;;10474008;28;20099;-75
2023/12/18 13:03:06;;;;;;;2.63;2.00;;;;;;;;;;10473218;28;20123;-75
2023/12/18 13:08:11;;;;;;;4.60;2.03;;;;;;;;;;10480573;28;20041;-75
2023/12/18 13:13:14;;;;;;;3.13;2.00;;;;;;;;;;10474617;28;20040;-76
2023/12/18 13:18:17;;;;;;;7.38;2.13;;;;;;;;;;10471460;28;20552;-76
2023/12/18 13:23:22;;;;;;;8.32;4.70;;;;;;;;;;10477844;28;20040;-76
2023/12/18 13:28:25;;;;;;;3.53;1.60;;;;;;;;;;10484952;28;20068;-76
2023/12/18 13:33:28;;;;;;;4.70;1.50;;;;;;;;;;10464663;28;20041;-76
2023/12/18 13:38:33;;;;;;;13.18;2.33;;;;;;;;;;10486476;28;20143;-75
2023/12/18 13:43:35;;;;;;;5.72;1.63;;;;;;;;;;10480961;28;20037;-75
2023/12/18 13:48:38;;;;;;;7.03;1.37;;;;;;;;;;10483749;28;20128;-75
2023/12/18 13:53:42;;;;;;;6.60;1.33;;;;;;;;;;10477504;28;20322;-74
2023/12/18 13:58:45;;;;;;;1.85;1.30;;;;;;;;;;10484792;28;20037;-75
2023/12/18 14:03:47;;;;;;;4.28;1.50;;;;;;;;;;10487994;28;20548;-76
2023/12/18 14:08:52;;;;;;;3.27;1.43;;;;;;;;;;10480245;28;20553;-73
2023/12/18 14:13:55;;;;;;;4.70;1.63;;;;;;;;;;10472668;28;20025;-75
2023/12/18 14:18:57;;;;;;;4.57;1.45;;;;;;;;;;10484848;28;20498;-75
2023/12/18 14:24:01;;;;;;;3.33;1.60;;;;;;;;;;10482300;28;20041;-75
2023/12/18 14:29:04;;;;;;;;;;;;;;;;;;10487123;28;20490;-75
2023/12/18 14:34:06;;;;;;;3.55;1.42;;;;;;;;;;10468961;28;19947;-74
2023/12/18 14:39:11;;;;;;;3.22;1.52;;;;;;;;;;10477275;28;20044;-75
2023/12/18 14:44:13;;;;;;;4.60;1.60;;;;;;;;;;10472958;28;20128;-75
2023/12/18 14:49:16;;;;;;;6.25;1.65;;;;;;;;;;10481263;28;20067;-74
2023/12/18 14:54:20;;;;;;;4.20;1.65;;;;;;;;;;10478748;28;20609;-74
2023/12/18 14:59:23;;;;;;;;;;;;;;;;;;10479677;28;20064;-75
2023/12/18 15:04:27;;;;;;;4.03;1.42;;;;;;;;;;10470008;28;20042;-75
2023/12/18 15:09:33;;;;;;;3.33;1.42;;;;;;;;;;10479804;28;20047;-74
2023/12/18 15:14:36;;;;;;;6.07;1.40;;;;;;;;;;10474309;28;20051;-74
2023/12/18 15:19:40;;;;;;;3.60;1.50;;;;;;;;;;10461405;28;20044;-74
2023/12/18 15:24:45;;;;;;;2.25;1.13;;;;;;;;;;10478059;28;20422;-75
2023/12/18 15:29:47;;;;;;;4.05;1.42;;;;;;;;;;10471974;28;20041;-73
2023/12/18 15:34:50;;;;;;;9.68;2.42;;;;;;;;;;10470770;28;20059;-75
2023/12/18 15:39:56;;;;;;;8.02;2.65;;;;;;;;;;10475306;28;20039;-74
2023/12/18 15:44:59;;;;;;;11.38;3.17;;;;;;;;;;10471049;28;20057;-75
2023/12/18 15:50:02;;;;;;;16.15;3.35;;;;;;;;;;10475190;28;20086;-74
2023/12/18 15:55:07;;;;;;;13.53;3.40;;;;;;;;;;10474931;28;20106;-75
2023/12/18 16:00:10;;;;;;;7.15;3.20;;;;;;;;;;10463021;28;20059;-74
2023/12/18 16:05:13;;;;;;;8.93;3.37;;;;;;;;;;10480365;28;20064;-73
2023/12/18 16:10:17;;;;;;;8.13;3.42;;;;;;;;;;10477814;28;20124;-75
2023/12/18 16:15:20;;;;;;;10.00;3.55;;;;;;;;;;10469860;28;20036;-74
2023/12/18 16:20:23;;;;;;;12.38;3.72;;;;;;;;;;10469375;28;20685;-75
2023/12/18 16:25:27;;;;;;;9.82;3.50;;;;;;;;;;10470686;28;20122;-74
2023/12/18 16:30:30;;;;;;;;;;;;;;;;;;10469392;28;20450;-74
2023/12/18 16:35:40;;;;;;;13.43;4.20;;;;;;;;;;10478381;28;20401;-74
2023/12/18 16:40:44;;;;;;;14.98;5.55;;;;;;;;;;10470063;28;20059;-75
2023/12/18 16:45:46;;;;;;;12.95;4.65;;;;;;;;;;10472546;28;20041;-74
2023/12/18 16:50:49;;;;;;;14.13;5.53;;;;;;;;;;10475902;28;20112;-76
2023/12/18 16:55:53;;;;;;;12.50;3.92;;;;;;;;;;10472072;28;20484;-76
2023/12/18 17:00:56;;;;;;;11.70;4.45;;;;;;;;;;10481242;28;20135;-76
2023/12/18 17:05:58;;;;;;;10.75;4.20;;;;;;;;;;10483835;28;20049;-75
2023/12/18 17:11:05;;;;;;;11.80;4.50;;;;;;;;;;10478015;28;20513;-75
2023/12/18 17:16:07;;;;;;;11.52;4.45;;;;;;;;;;10477630;28;20416;-75
2023/12/18 17:21:10;;;;;;;16.90;4.97;;;;;;;;;;10472588;28;20044;-75
2023/12/18 17:26:15;;;;;;;11.65;4.90;;;;;;;;;;10481185;28;20124;-74
2023/12/18 17:31:17;;;;;;;13.95;4.90;;;;;;;;;;10472711;28;20072;-75
2023/12/18 17:36:20;;;;;;;10.13;4.57;;;;;;;;;;10485283;28;20078;-75
2023/12/18 17:41:24;;;;;;;68.05;19.30;;;;;;;;;;10480891;28;20058;-75
2023/12/18 17:46:27;;;;;;;40.92;11.45;;;;;;;;;;10482160;28;20459;-74
2023/12/18 17:51:30;;;;;;;30.10;9.05;;;;;;;;;;10485013;28;20058;-74
2023/12/18 17:56:34;;;;;;;24.05;7.55;;;;;;;;;;10487500;28;20398;-75
2023/12/18 18:01:36;;;;;;;19.88;6.63;;;;;;;;;;10474101;28;20155;-75
2023/12/18 18:06:39;;;;;;;20.67;6.43;;;;;;;;;;10487732;28;20394;-74
2023/12/18 18:11:43;;;;;;;16.55;6.47;;;;;;;;;;10490668;28;20094;-75
2023/12/18 18:16:45;;;;;;;22.83;6.57;;;;;;;;;;10487039;28;20503;-75
2023/12/18 18:21:48;;;;;;;26.05;9.18;;;;;;;;;;10481723;28;20041;-75
2023/12/18 18:26:52;;;;;;;17.27;6.78;;;;;;;;;;10490955;28;20375;-75
2023/12/18 18:32:12;;;;;;;24.85;7.47;;;;;;;;;;10485693;28;20036;-75
2023/12/18 18:37:14;;;;;;;14.02;5.97;;;;;;;;;;10480850;28;20106;-75
2023/12/18 18:42:18;;;;;;;14.05;5.45;;;;;;;;;;10478090;28;20045;-74
2023/12/18 18:47:21;;;;;;;11.90;4.60;;;;;;;;;;10482346;28;20051;-75
2023/12/18 18:52:24;;;;;;;12.13;4.35;;;;;;;;;;10481452;28;20114;-75
2023/12/18 18:57:28;;;;;;;15.35;5.45;;;;;;;;;;10476800;28;20051;-75
2023/12/18 19:02:31;;;;;;;10.93;4.82;;;;;;;;;;10474790;28;20044;-74
2023/12/18 19:07:34;;;;;;;5.05;1.83;;;;;;;;;;10466683;28;20040;-74
2023/12/18 19:12:41;;;;;;;14.45;4.95;;;;;;;;;;10485520;28;20083;-74
2023/12/18 19:17:44;;;;;;;9.82;3.72;;;;;;;;;;10475911;28;20341;-74
2023/12/18 19:22:48;;;;;;;13.43;4.70;;;;;;;;;;10473777;28;20482;-74
2023/12/18 19:27:52;;;;;;;12.17;4.67;;;;;;;;;;10477467;28;20484;-76
2023/12/18 19:32:55;;;;;;;13.23;4.75;;;;;;;;;;10483227;28;20052;-76
2023/12/18 19:37:59;;;;;;;13.20;4.55;;;;;;;;;;10479816;28;20044;-75
2023/12/18 19:43:03;;;;;;;13.55;5.57;;;;;;;;;;10479900;28;20423;-73
2023/12/18 19:48:06;;;;;;;9.88;3.97;;;;;;;;;;10474434;28;20129;-74
2023/12/18 19:53:09;;;;;;;12.75;3.97;;;;;;;;;;10479700;28;20051;-75
2023/12/18 19:58:13;;;;;;;16.75;4.75;;;;;;;;;;10477920;28;20498;-74
2023/12/18 20:03:15;;;;;;;15.52;3.92;;;;;;;;;;10476654;28;20050;-75
2023/12/18 20:08:18;;;;;;;14.52;4.85;;;;;;;;;;10499928;28;20115;-75
2023/12/18 20:13:22;;;;;;;9.60;4.50;;;;;;;;;;10484735;28;20044;-76
2023/12/18 20:18:25;;;;;;;13.02;5.00;;;;;;;;;;10477180;28;20510;-75
2023/12/18 20:23:28;;;;;;;12.77;4.20;;;;;;;;;;10471239;28;20045;-74
2023/12/18 20:28:32;;;;;;;8.55;3.53;;;;;;;;;;10475323;28;20033;-74
2023/12/18 20:33:35;;;;;;;;;;;;;;;;;;10475318;28;20124;-75
2023/12/18 20:38:37;;;;;;;21.42;6.55;;;;;;;;;;10477483;28;20496;-74
2023/12/18 20:43:41;;;;;;;10.63;4.50;;;;;;;;;;10475361;28;20056;-76
2023/12/18 20:48:44;;;;;;;11.55;4.28;;;;;;;;;;10470755;28;20047;-76
2023/12/18 20:53:47;;;;;;;9.68;3.75;;;;;;;;;;10475461;28;20095;-76
2023/12/18 20:58:51;;;;;;;15.18;4.78;;;;;;;;;;10469658;28;20510;-76
2023/12/18 21:03:55;;;;;;;6.38;2.60;;;;;;;;;;10473407;28;20052;-74
2023/12/18 21:08:58;;;;;;;9.27;3.90;;;;;;;;;;10473733;28;20133;-77
2023/12/18 21:14:02;;;;;;;6.30;3.20;;;;;;;;;;10467471;28;20032;-76
2023/12/18 21:19:04;;;;;;;15.48;5.82;;;;;;;;;;10473660;28;20465;-74
2023/12/18 21:24:08;;;;;;;27.23;9.45;;;;;;;;;;10468665;28;20044;-75
2023/12/18 21:29:12;;;;;;;14.77;4.53;;;;;;;;;;10477608;28;20039;-74
2023/12/18 21:34:15;;;;;;;7.72;3.83;;;;;;;;;;10471410;28;20143;-74
2023/12/18 21:39:17;;;;;;;4.88;1.17;;;;;;;;;;10473133;28;20676;-74
2023/12/18 21:44:22;;;;;;;52.03;13.82;;;;;;;;;;10467373;28;20489;-75
2023/12/18 21:49:24;;;;;;;26.85;10.57;;;;;;;;;;10457113;28;20144;-75
2023/12/18 21:54:27;;;;;;;19.23;5.88;;;;;;;;;;10467905;28;20047;-74
2023/12/18 21:59:31;;;;;;;30.40;8.05;;;;;;;;;;10482363;28;20410;-74
2023/12/18 22:04:36;;;;;;;32.47;7.50;;;;;;;;;;10466542;28;20615;-74
2023/12/18 22:09:39;;;;;;;15.18;3.67;;;;;;;;;;10481532;28;20510;-74
2023/12/18 22:14:44;;;;;;;15.75;4.13;;;;;;;;;;10476293;28;20457;-75
2023/12/18 22:19:47;;;;;;;9.75;3.67;;;;;;;;;;10474180;28;20136;-75
2023/12/18 22:24:50;;;;;;;7.82;2.85;;;;;;;;;;10475362;28;20040;-75
2023/12/18 22:29:54;;;;;;;3.83;1.67;;;;;;;;;;10481458;28;20034;-74
2023/12/18 22:34:56;;;;;;;5.68;1.95;;;;;;;;;;10469535;28;20127;-75
2023/12/18 22:39:59;;;;;;;5.60;2.63;;;;;;;;;;10452870;28;20105;-74
2023/12/18 22:45:04;;;;;;;4.63;2.33;;;;;;;;;;10474411;28;20103;-75
2023/12/18 22:50:07;;;;;;;8.40;2.63;;;;;;;;;;10478963;28;20047;-75
2023/12/18 22:55:10;;;;;;;6.45;3.03;;;;;;;;;;10468698;28;20048;-74
2023/12/18 23:00:22;;;;;;;8.45;2.92;;;;;;;;;;10472698;28;20150;-75
2023/12/18 23:05:25;;;;;;;8.35;3.08;;;;;;;;;;10467528;28;20072;-74
2023/12/18 23:10:28;;;;;;;7.00;3.03;;;;;;;;;;10465852;28;20402;-75
2023/12/18 23:15:31;;;;;;;5.93;2.33;;;;;;;;;;10481176;28;20416;-75
2023/12/18 23:20:35;;;;;;;2.25;1.08;;;;;;;;;;10463753;28;20037;-74
2023/12/18 23:25:37;;;;;;;5.30;2.37;;;;;;;;;;10465344;28;20036;-75
2023/12/18 23:30:42;;;;;;;7.88;2.75;;;;;;;;;;10471326;28;20051;-74
2023/12/18 23:35:45;;;;;;;7.40;3.20;;;;;;;;;;10471049;28;20471;-74
2023/12/18 23:40:47;;;;;;;6.57;2.90;;;;;;;;;;10473139;28;20041;-74
2023/12/18 23:45:51;;;;;;;7.13;2.70;;;;;;;;;;10469097;28;20533;-74
2023/12/18 23:50:54;;;;;;;8.00;2.67;;;;;;;;;;10474589;28;20063;-74
2023/12/18 23:55:56;;;;;;;7.27;2.40;;;;;;;;;;10466100;28;20338;-74
